Search flights
Heathrow Airport, London (EGLL)
Airport Weather & NOTAM's
Live Departures & Arrivals
There are currently no arrivals or departures for this airport.
Departures History (last 12 months)
| Flight No. | Dest. | Aircraft | Date |
|---|---|---|---|
| ETHUA17 | KEWR | B787-10 | 2026-04-25 12:00:00 |
| ET701 | HAAB | A350-900 | 2026-04-21 12:00:00 |
| ET701 | HAAB | A350-900 | 2026-04-16 12:00:00 |
| ET3687 | EBLG | B777-200LR | 2026-04-15 12:00:00 |
| ETHKQ100 | HKJK | B787-8 | 2026-04-11 12:00:00 |
| ETHCX256 | VHHH | B777-300ER | 2026-04-08 12:00:00 |
| ETHTHA911 | VTBS | B777-200LR | 2026-04-05 12:00:00 |
| ET701 | HAAB | A359 | 2026-04-06 12:00:00 |
| ETHKE2113 | RKSI | B777-300ER | 2026-04-04 12:00:00 |
| ETCTR | FAOR | B777-200LR | 2026-04-02 12:00:00 |
| ETHEY12 | OMAA | A388 | 2026-04-01 12:00:00 |
| ETHEY12 | OMAA | B787-10 | 2026-03-19 12:00:00 |
| ETHMH1 | WMKK | A388 | 2026-03-14 12:00:00 |
| ETHEY12 | OMAA | B787-10 | 2026-03-13 12:00:00 |
| ETHAY13343 | EFHK | A333 | 2026-02-23 12:00:00 |
| ETHMH1 | WMKK | B777-200LR | 2026-02-19 12:00:00 |
| ET3687 | EBLG | B777-200LR | 2026-02-07 12:00:00 |
| ET3687 | EBLG | B777-200LR | 2026-02-07 12:00:00 |
| ET701 | HAAB | A350 | 2025-12-22 12:00:00 |
| MH 1 | WMKK | A388 | 2025-11-27 12:00:00 |
| AY1334 (3) | EFHK | A333 | 2025-11-15 12:00:00 |
| ETH701 | HAAB | A350-900 | 2025-10-21 12:00:00 |
| ET701 | HAAB | A350-900 | 2025-10-01 12:00:00 |
| ETH718 | EGKK | A350-900 | 2025-09-29 12:00:00 |
| ETCTR | SBKP | A350-900 | 2025-09-09 12:00:00 |
| ETCTR | KSFO | B777-200LR | 2025-09-07 12:00:00 |
| ETCTR | YBBN | B777-200LR | 2025-09-07 12:00:00 |
| ET FEATURED | PGUM | B777F | 2025-09-01 12:00:00 |
| ET FEATURED | EDDF | A350-900 | 2025-08-31 12:00:00 |
| CX256 | VHHH | B777-300ER | 2025-08-31 12:00:00 |
| ET701 | HAAB | A350-900 | 2025-08-30 12:00:00 |
| ET05 | HAAB | A350 | 2025-07-22 00:00:00 |
| ETHEY12 | OMAA | A388 | 2025-07-19 00:00:00 |
| ETHMH1 | WMKK | A388 | 2025-06-29 00:00:00 |
| ETH701 | HAAB | A350-900 | 2025-06-24 00:00:00 |
| ETH36871B | EBLG | B777-200LR | 2025-06-11 00:00:00 |
| ET701 | HAAB | A350-900 | 2025-06-08 00:00:00 |
| ET701 | HAAB | A350-900 | 2025-05-28 00:00:00 |
| ETH701 | HAAB | A350-900 | 2025-05-17 00:00:00 |
Arrivals History (last 12 months)
| Flight No. | Origin | Aircraft | Date |
|---|---|---|---|
| ET3687 | HAAB | B777-200LR | 2026-05-01 12:00:00 |
| ETH3687 | ZSAM | B777-200LR | 2026-04-25 12:00:00 |
| ETH3687 | HAAB | B777-200LR | 2026-04-01 12:00:00 |
| ET700 | HAAB | A350-900 | 2026-03-29 12:00:00 |
| ETHKU102 | KJFK | B777-300ER | 2026-03-11 12:00:00 |
| ETHKQ102 | HKJK | B787-8 | 2026-03-11 12:00:00 |
| ETH700 | HAAB | A350-900 | 2026-03-08 12:00:00 |
| KQ102 | HKJK | B787-8 | 2026-02-19 12:00:00 |
| MH2 | WMKK | A388 | 2026-02-17 12:00:00 |
| ET700 | HAAB | A359 | 2026-02-15 12:00:00 |
| ETH700 | HAAB | A350-900 | 2026-02-09 12:00:00 |
| ET700 | HAAB | A350-900 | 2026-02-07 12:00:00 |
| ET3687 | HAAB | B777-200LR | 2026-02-07 12:00:00 |
| ET3687 | HAAB | B777-200LR | 2026-02-06 12:00:00 |
| ET700 | HAAB | B787-8 | 2026-02-03 12:00:00 |
| ETH3687 | ZSAM | B777-200LR | 2026-01-27 12:00:00 |
| KE2112 | RKSI | B777-300ER | 2026-01-19 12:00:00 |
| MH 2 | WMKK | A350-900 | 2025-12-24 12:00:00 |
| ET3687 (1A) | HAAB | B777-200LR | 2025-11-26 12:00:00 |
| A3554 | LGMK | A320 | 2025-11-15 12:00:00 |
| ETHAY13333 | EFHK | A333 | 2025-10-20 12:00:00 |
| ET3687 (1D) | ZSAM | B777-200LR | 2025-10-08 12:00:00 |
| ETH7001 | HAAB | A350-900 | 2025-10-01 12:00:00 |
| AY1333 (3) | EFHK | A333 | 2025-09-15 12:00:00 |
| ETH7001 | HAAB | A350-900 | 2025-09-11 12:00:00 |
| ETH36871A | HAAB | B777F | 2025-09-05 12:00:00 |
| ETH7001 | HAAB | A350-900 | 2025-09-03 12:00:00 |
| ETH7001 | HAAB | A350 | 2025-08-30 12:00:00 |
| ETHKU102 | KJFK | B777-300ER | 2025-07-28 00:00:00 |
| ETH36871A | HAAB | B777-200LR | 2025-07-27 00:00:00 |
| ET3687 (1A) | HAAB | B777-200LR | 2025-07-17 00:00:00 |
| CX255 | VHHH | B777-300ER | 2025-07-14 00:00:00 |
| ETHCX255 | VHHH | B777-300ER | 2025-06-13 00:00:00 |
| ET700 (1) | HAAB | A350-900 | 2025-06-08 00:00:00 |
| AY1333 (3) | EFHK | A333 | 2025-06-02 00:00:00 |
Runway Information (Airport elevation: 83ft)
| Runway | 09L | Length | 12,822ft | Width | 163ft | Elevation | 77ft | Surface | Asphalt | Heading | 90 |
| Runway | 09R | Length | 12,008ft | Width | 171ft | Elevation | 77ft | Surface | Asphalt | Heading | 90 |
| Runway | 27L | Length | 12,008ft | Width | 171ft | Elevation | 77ft | Surface | Asphalt | Heading | 270 |
| Runway | 27R | Length | 12,822ft | Width | 163ft | Elevation | 77ft | Surface | Asphalt | Heading | 270 |
Airport Frequencies
| Type | APP/DEP | Frequency | 120.400 Mhz |
| Type | APP/DEP | Frequency | 127.525 Mhz |
| Type | APP/DEP | Frequency | 134.980 Mhz |
| Type | ATIS | Frequency | 121.935 Mhz |
| Type | ATIS | Frequency | 128.080 Mhz |
| Type | Clearance | Frequency | 121.980 Mhz |
| Type | Ground | Frequency | 121.705 Mhz |
| Type | Ground | Frequency | 121.855 Mhz |
| Type | Ground | Frequency | 121.905 Mhz |
| Type | Tower | Frequency | 118.505 Mhz |
| Type | Tower | Frequency | 118.705 Mhz |
| Type | Tower | Frequency | 124.475 Mhz |
| Type | APP/DEP | Frequency | 119.730 Mhz |
| Type | APP/DEP | Frequency | 120.400 Mhz |
| Type | APP/DEP | Frequency | 125.625 Mhz |
| Type | APP/DEP | Frequency | 127.525 Mhz |
| Type | APP/DEP | Frequency | 134.980 Mhz |
| Type | Ground | Frequency | 121.855 Mhz |
| Type | Ground | Frequency | 121.905 Mhz |
| Type | Ground | Frequency | 121.980 Mhz |
| Type | Tower | Frequency | 118.705 Mhz |
| Type | Tower | Frequency | 124.475 Mhz |
Airport Navaids
| Type | VOR-DME | Ident | LON | Frequency | 113600 Khz |